Terminal Aerodrome Forecast
Issued by NWS

Home | Current Version | Previous Version | Graphics & Text | Print | Product List | Glossary On
Versions: 1 2 3 4 5 6 7 8 9 10 11 12 13 14
000
FTUS43 KGRB 210533
TAFATW
TAF
KATW 210533Z 2106/2206 29012G18KT P6SM VCSH BKN015 BKN025
      TEMPO 2106/2110 SCT015 BKN030
     FM211000 31011KT P6SM FEW010 BKN017
     FM211500 35011KT P6SM BKN025
     FM211700 35011KT P6SM FEW030 SCT070
     FM212300 02008KT P6SM SKC=

USA.gov is the U.S. government's official web portal to all federal, state and local government web resources and services.